sensor_id;sensor_type;location;lat;lon;timestamp;P1;durP1;ratioP1;P2;durP2;ratioP2
24547;SDS011;12713;51.624;4.924;2024-02-23T00:01:56;9.15;;;3.78;;
24547;SDS011;12713;51.624;4.924;2024-02-23T00:04:22;7.88;;;3.13;;
24547;SDS011;12713;51.624;4.924;2024-02-23T00:06:48;8.63;;;3.13;;
24547;SDS011;12713;51.624;4.924;2024-02-23T00:09:15;6.07;;;2.83;;
24547;SDS011;12713;51.624;4.924;2024-02-23T00:11:41;12.95;;;3.05;;
24547;SDS011;12713;51.624;4.924;2024-02-23T00:14:12;6.95;;;2.55;;
24547;SDS011;12713;51.624;4.924;2024-02-23T00:16:39;11.02;;;3.75;;
24547;SDS011;12713;51.624;4.924;2024-02-23T00:19:06;12.75;;;3.40;;
24547;SDS011;12713;51.624;4.924;2024-02-23T00:21:33;5.95;;;3.15;;
24547;SDS011;12713;51.624;4.924;2024-02-23T00:23:59;8.25;;;3.20;;
24547;SDS011;12713;51.624;4.924;2024-02-23T00:26:25;10.23;;;3.95;;
24547;SDS011;12713;51.624;4.924;2024-02-23T00:28:53;9.52;;;4.00;;
24547;SDS011;12713;51.624;4.924;2024-02-23T00:31:19;9.55;;;4.00;;
24547;SDS011;12713;51.624;4.924;2024-02-23T00:33:45;10.00;;;3.90;;
24547;SDS011;12713;51.624;4.924;2024-02-23T00:36:11;14.80;;;4.85;;
24547;SDS011;12713;51.624;4.924;2024-02-23T00:38:37;7.75;;;3.10;;
24547;SDS011;12713;51.624;4.924;2024-02-23T00:41:03;8.40;;;3.17;;
24547;SDS011;12713;51.624;4.924;2024-02-23T00:43:29;10.10;;;2.97;;
24547;SDS011;12713;51.624;4.924;2024-02-23T00:45:55;7.05;;;3.22;;
24547;SDS011;12713;51.624;4.924;2024-02-23T00:48:21;8.90;;;2.92;;
24547;SDS011;12713;51.624;4.924;2024-02-23T00:50:47;8.73;;;2.30;;
24547;SDS011;12713;51.624;4.924;2024-02-23T00:53:13;10.48;;;2.50;;
24547;SDS011;12713;51.624;4.924;2024-02-23T00:55:39;9.63;;;2.80;;
24547;SDS011;12713;51.624;4.924;2024-02-23T00:58:05;8.02;;;2.28;;
24547;SDS011;12713;51.624;4.924;2024-02-23T01:00:31;8.80;;;2.05;;
24547;SDS011;12713;51.624;4.924;2024-02-23T01:02:58;6.35;;;1.88;;
24547;SDS011;12713;51.624;4.924;2024-02-23T01:05:25;6.40;;;2.20;;
24547;SDS011;12713;51.624;4.924;2024-02-23T01:07:51;10.40;;;2.50;;
24547;SDS011;12713;51.624;4.924;2024-02-23T01:10:17;6.22;;;2.30;;
24547;SDS011;12713;51.624;4.924;2024-02-23T01:12:43;5.78;;;1.83;;
24547;SDS011;12713;51.624;4.924;2024-02-23T01:15:09;7.05;;;2.22;;
24547;SDS011;12713;51.624;4.924;2024-02-23T01:17:35;7.03;;;1.70;;
24547;SDS011;12713;51.624;4.924;2024-02-23T01:20:02;8.50;;;2.40;;
24547;SDS011;12713;51.624;4.924;2024-02-23T01:22:28;7.70;;;2.28;;
24547;SDS011;12713;51.624;4.924;2024-02-23T01:24:54;7.72;;;1.70;;
24547;SDS011;12713;51.624;4.924;2024-02-23T01:27:20;7.03;;;1.80;;
24547;SDS011;12713;51.624;4.924;2024-02-23T01:29:47;8.75;;;2.20;;
24547;SDS011;12713;51.624;4.924;2024-02-23T01:32:13;12.10;;;2.15;;
24547;SDS011;12713;51.624;4.924;2024-02-23T01:34:39;7.63;;;1.80;;
24547;SDS011;12713;51.624;4.924;2024-02-23T01:37:05;5.25;;;1.30;;
24547;SDS011;12713;51.624;4.924;2024-02-23T01:39:31;9.75;;;2.15;;
24547;SDS011;12713;51.624;4.924;2024-02-23T01:41:57;8.55;;;1.92;;
24547;SDS011;12713;51.624;4.924;2024-02-23T01:44:23;13.02;;;2.20;;
24547;SDS011;12713;51.624;4.924;2024-02-23T01:46:50;6.15;;;1.90;;
24547;SDS011;12713;51.624;4.924;2024-02-23T01:49:16;8.02;;;1.65;;
24547;SDS011;12713;51.624;4.924;2024-02-23T01:51:42;5.78;;;1.45;;
24547;SDS011;12713;51.624;4.924;2024-02-23T01:54:09;10.82;;;2.28;;
24547;SDS011;12713;51.624;4.924;2024-02-23T01:56:35;7.13;;;1.95;;
24547;SDS011;12713;51.624;4.924;2024-02-23T01:59:04;7.78;;;1.92;;
24547;SDS011;12713;51.624;4.924;2024-02-23T02:01:30;7.38;;;2.15;;
24547;SDS011;12713;51.624;4.924;2024-02-23T02:03:56;7.88;;;1.58;;
24547;SDS011;12713;51.624;4.924;2024-02-23T02:06:24;8.75;;;2.92;;
24547;SDS011;12713;51.624;4.924;2024-02-23T02:08:50;9.45;;;3.05;;
24547;SDS011;12713;51.624;4.924;2024-02-23T02:11:16;6.25;;;1.85;;
24547;SDS011;12713;51.624;4.924;2024-02-23T02:13:42;10.52;;;2.03;;
24547;SDS011;12713;51.624;4.924;2024-02-23T02:16:08;10.23;;;1.98;;
24547;SDS011;12713;51.624;4.924;2024-02-23T02:18:36;13.10;;;1.70;;
24547;SDS011;12713;51.624;4.924;2024-02-23T02:21:02;8.68;;;1.67;;
24547;SDS011;12713;51.624;4.924;2024-02-23T02:23:28;5.88;;;1.50;;
24547;SDS011;12713;51.624;4.924;2024-02-23T02:25:55;8.15;;;1.73;;
24547;SDS011;12713;51.624;4.924;2024-02-23T02:28:22;8.85;;;2.00;;
24547;SDS011;12713;51.624;4.924;2024-02-23T02:30:48;9.98;;;1.55;;
24547;SDS011;12713;51.624;4.924;2024-02-23T02:33:14;5.75;;;1.67;;
24547;SDS011;12713;51.624;4.924;2024-02-23T02:35:40;7.05;;;1.75;;
24547;SDS011;12713;51.624;4.924;2024-02-23T02:38:06;8.55;;;1.58;;
24547;SDS011;12713;51.624;4.924;2024-02-23T02:40:32;8.68;;;1.70;;
24547;SDS011;12713;51.624;4.924;2024-02-23T02:42:58;7.85;;;1.90;;
24547;SDS011;12713;51.624;4.924;2024-02-23T02:45:24;8.35;;;1.98;;
24547;SDS011;12713;51.624;4.924;2024-02-23T02:47:50;9.98;;;1.58;;
24547;SDS011;12713;51.624;4.924;2024-02-23T02:50:16;9.10;;;2.40;;
24547;SDS011;12713;51.624;4.924;2024-02-23T02:52:42;9.32;;;1.70;;
24547;SDS011;12713;51.624;4.924;2024-02-23T02:55:08;7.65;;;1.95;;
24547;SDS011;12713;51.624;4.924;2024-02-23T02:57:34;9.63;;;2.13;;
24547;SDS011;12713;51.624;4.924;2024-02-23T03:00:01;5.47;;;2.28;;
24547;SDS011;12713;51.624;4.924;2024-02-23T03:02:29;10.10;;;2.22;;
24547;SDS011;12713;51.624;4.924;2024-02-23T03:04:55;9.63;;;2.67;;
24547;SDS011;12713;51.624;4.924;2024-02-23T03:07:22;10.35;;;2.92;;
24547;SDS011;12713;51.624;4.924;2024-02-23T03:09:48;8.48;;;2.33;;
24547;SDS011;12713;51.624;4.924;2024-02-23T03:12:15;9.68;;;2.33;;
24547;SDS011;12713;51.624;4.924;2024-02-23T03:14:42;5.45;;;1.83;;
24547;SDS011;12713;51.624;4.924;2024-02-23T03:17:08;11.82;;;2.65;;
24547;SDS011;12713;51.624;4.924;2024-02-23T03:19:35;5.80;;;1.83;;
24547;SDS011;12713;51.624;4.924;2024-02-23T03:22:01;6.82;;;2.08;;
24547;SDS011;12713;51.624;4.924;2024-02-23T03:24:27;12.07;;;1.75;;
24547;SDS011;12713;51.624;4.924;2024-02-23T03:26:53;7.60;;;1.95;;
24547;SDS011;12713;51.624;4.924;2024-02-23T03:29:20;6.35;;;1.90;;
24547;SDS011;12713;51.624;4.924;2024-02-23T03:31:49;11.43;;;2.00;;
24547;SDS011;12713;51.624;4.924;2024-02-23T03:34:15;6.80;;;1.65;;
24547;SDS011;12713;51.624;4.924;2024-02-23T03:36:41;8.57;;;1.70;;
24547;SDS011;12713;51.624;4.924;2024-02-23T03:39:07;13.45;;;2.42;;
24547;SDS011;12713;51.624;4.924;2024-02-23T03:41:33;10.15;;;1.90;;
24547;SDS011;12713;51.624;4.924;2024-02-23T03:43:59;11.82;;;2.50;;
24547;SDS011;12713;51.624;4.924;2024-02-23T03:46:25;8.15;;;2.08;;
24547;SDS011;12713;51.624;4.924;2024-02-23T03:48:51;15.00;;;2.63;;
24547;SDS011;12713;51.624;4.924;2024-02-23T03:51:17;9.85;;;1.95;;
24547;SDS011;12713;51.624;4.924;2024-02-23T03:53:43;11.20;;;2.50;;
24547;SDS011;12713;51.624;4.924;2024-02-23T03:56:09;9.07;;;2.53;;
24547;SDS011;12713;51.624;4.924;2024-02-23T03:58:36;9.13;;;2.00;;
24547;SDS011;12713;51.624;4.924;2024-02-23T04:01:02;8.77;;;2.72;;
24547;SDS011;12713;51.624;4.924;2024-02-23T04:03:28;6.55;;;2.38;;
24547;SDS011;12713;51.624;4.924;2024-02-23T04:05:54;7.25;;;2.40;;
24547;SDS011;12713;51.624;4.924;2024-02-23T04:08:20;7.30;;;2.50;;
24547;SDS011;12713;51.624;4.924;2024-02-23T04:10:46;7.85;;;1.98;;
24547;SDS011;12713;51.624;4.924;2024-02-23T04:13:12;8.68;;;2.38;;
24547;SDS011;12713;51.624;4.924;2024-02-23T04:15:43;8.10;;;2.25;;
24547;SDS011;12713;51.624;4.924;2024-02-23T04:18:09;10.52;;;2.72;;
24547;SDS011;12713;51.624;4.924;2024-02-23T04:20:35;9.57;;;2.65;;
24547;SDS011;12713;51.624;4.924;2024-02-23T04:23:01;10.48;;;2.83;;
24547;SDS011;12713;51.624;4.924;2024-02-23T04:25:27;6.82;;;2.13;;
24547;SDS011;12713;51.624;4.924;2024-02-23T04:27:53;8.07;;;2.97;;
24547;SDS011;12713;51.624;4.924;2024-02-23T04:30:19;7.43;;;2.38;;
24547;SDS011;12713;51.624;4.924;2024-02-23T04:32:45;8.15;;;2.67;;
24547;SDS011;12713;51.624;4.924;2024-02-23T04:35:11;7.25;;;2.15;;
24547;SDS011;12713;51.624;4.924;2024-02-23T04:37:37;15.05;;;3.25;;
24547;SDS011;12713;51.624;4.924;2024-02-23T04:40:04;10.57;;;2.80;;
24547;SDS011;12713;51.624;4.924;2024-02-23T04:42:30;7.20;;;1.85;;
24547;SDS011;12713;51.624;4.924;2024-02-23T04:44:56;8.18;;;2.25;;
24547;SDS011;12713;51.624;4.924;2024-02-23T04:47:22;8.60;;;2.30;;
24547;SDS011;12713;51.624;4.924;2024-02-23T04:49:48;14.07;;;2.47;;
24547;SDS011;12713;51.624;4.924;2024-02-23T04:52:14;7.97;;;2.28;;
24547;SDS011;12713;51.624;4.924;2024-02-23T04:54:40;8.30;;;2.83;;
24547;SDS011;12713;51.624;4.924;2024-02-23T04:57:07;9.88;;;2.15;;
24547;SDS011;12713;51.624;4.924;2024-02-23T04:59:33;9.98;;;2.75;;
24547;SDS011;12713;51.624;4.924;2024-02-23T05:01:59;6.43;;;1.83;;
24547;SDS011;12713;51.624;4.924;2024-02-23T05:04:25;13.77;;;2.35;;
24547;SDS011;12713;51.624;4.924;2024-02-23T05:06:51;7.22;;;2.22;;
24547;SDS011;12713;51.624;4.924;2024-02-23T05:09:18;10.45;;;2.40;;
24547;SDS011;12713;51.624;4.924;2024-02-23T05:11:45;8.00;;;2.30;;
24547;SDS011;12713;51.624;4.924;2024-02-23T05:14:12;7.45;;;2.00;;
24547;SDS011;12713;51.624;4.924;2024-02-23T05:16:38;8.57;;;2.20;;
24547;SDS011;12713;51.624;4.924;2024-02-23T05:19:04;8.15;;;2.17;;
24547;SDS011;12713;51.624;4.924;2024-02-23T05:21:30;10.20;;;2.35;;
24547;SDS011;12713;51.624;4.924;2024-02-23T05:23:56;8.52;;;2.15;;
24547;SDS011;12713;51.624;4.924;2024-02-23T05:26:22;5.85;;;2.20;;
24547;SDS011;12713;51.624;4.924;2024-02-23T05:28:48;10.52;;;2.30;;
24547;SDS011;12713;51.624;4.924;2024-02-23T05:31:14;4.80;;;1.85;;
24547;SDS011;12713;51.624;4.924;2024-02-23T05:33:40;8.23;;;2.00;;
24547;SDS011;12713;51.624;4.924;2024-02-23T05:36:06;9.85;;;2.10;;
24547;SDS011;12713;51.624;4.924;2024-02-23T05:38:33;7.90;;;2.67;;
24547;SDS011;12713;51.624;4.924;2024-02-23T05:40:59;6.97;;;1.90;;
24547;SDS011;12713;51.624;4.924;2024-02-23T05:43:25;7.15;;;2.00;;
24547;SDS011;12713;51.624;4.924;2024-02-23T05:45:51;8.60;;;2.15;;
24547;SDS011;12713;51.624;4.924;2024-02-23T05:48:19;8.07;;;2.30;;
24547;SDS011;12713;51.624;4.924;2024-02-23T05:50:45;11.05;;;2.47;;
24547;SDS011;12713;51.624;4.924;2024-02-23T05:53:11;10.27;;;2.10;;
24547;SDS011;12713;51.624;4.924;2024-02-23T05:55:37;15.23;;;2.80;;
24547;SDS011;12713;51.624;4.924;2024-02-23T05:58:03;6.53;;;2.20;;
24547;SDS011;12713;51.624;4.924;2024-02-23T06:00:30;9.02;;;2.45;;
24547;SDS011;12713;51.624;4.924;2024-02-23T06:02:56;5.40;;;1.92;;
24547;SDS011;12713;51.624;4.924;2024-02-23T06:05:22;5.47;;;2.28;;
24547;SDS011;12713;51.624;4.924;2024-02-23T06:07:48;6.68;;;1.80;;
24547;SDS011;12713;51.624;4.924;2024-02-23T06:10:14;10.65;;;2.45;;
24547;SDS011;12713;51.624;4.924;2024-02-23T06:12:40;9.02;;;2.03;;
24547;SDS011;12713;51.624;4.924;2024-02-23T06:15:06;11.77;;;2.25;;
24547;SDS011;12713;51.624;4.924;2024-02-23T06:17:33;9.85;;;2.00;;
24547;SDS011;12713;51.624;4.924;2024-02-23T06:19:59;10.13;;;2.30;;
24547;SDS011;12713;51.624;4.924;2024-02-23T06:22:25;10.25;;;2.13;;
24547;SDS011;12713;51.624;4.924;2024-02-23T06:24:51;5.38;;;2.00;;
24547;SDS011;12713;51.624;4.924;2024-02-23T06:27:17;10.98;;;2.20;;
24547;SDS011;12713;51.624;4.924;2024-02-23T06:29:43;10.50;;;2.78;;
24547;SDS011;12713;51.624;4.924;2024-02-23T06:32:09;12.60;;;2.08;;
24547;SDS011;12713;51.624;4.924;2024-02-23T06:34:35;9.75;;;1.90;;
24547;SDS011;12713;51.624;4.924;2024-02-23T06:37:01;14.48;;;2.78;;
24547;SDS011;12713;51.624;4.924;2024-02-23T06:39:28;8.30;;;2.20;;
24547;SDS011;12713;51.624;4.924;2024-02-23T06:41:54;7.38;;;1.70;;
24547;SDS011;12713;51.624;4.924;2024-02-23T06:44:20;7.60;;;2.05;;
24547;SDS011;12713;51.624;4.924;2024-02-23T06:46:46;9.02;;;1.65;;
24547;SDS011;12713;51.624;4.924;2024-02-23T06:49:12;10.82;;;2.25;;
24547;SDS011;12713;51.624;4.924;2024-02-23T06:51:38;7.53;;;2.20;;
24547;SDS011;12713;51.624;4.924;2024-02-23T06:54:05;11.30;;;1.92;;
24547;SDS011;12713;51.624;4.924;2024-02-23T06:56:33;13.63;;;2.53;;
24547;SDS011;12713;51.624;4.924;2024-02-23T06:58:59;7.40;;;2.13;;
24547;SDS011;12713;51.624;4.924;2024-02-23T07:01:25;9.90;;;2.00;;
24547;SDS011;12713;51.624;4.924;2024-02-23T07:03:52;10.07;;;2.25;;
24547;SDS011;12713;51.624;4.924;2024-02-23T07:06:19;12.23;;;3.33;;
24547;SDS011;12713;51.624;4.924;2024-02-23T07:08:45;10.43;;;3.20;;
24547;SDS011;12713;51.624;4.924;2024-02-23T07:11:11;10.63;;;2.42;;
24547;SDS011;12713;51.624;4.924;2024-02-23T07:13:37;11.07;;;3.13;;
24547;SDS011;12713;51.624;4.924;2024-02-23T07:16:04;7.57;;;2.53;;
24547;SDS011;12713;51.624;4.924;2024-02-23T07:18:31;8.90;;;3.08;;
24547;SDS011;12713;51.624;4.924;2024-02-23T07:20:57;11.00;;;3.33;;
24547;SDS011;12713;51.624;4.924;2024-02-23T07:23:23;17.77;;;3.33;;
24547;SDS011;12713;51.624;4.924;2024-02-23T07:25:49;10.10;;;2.90;;
24547;SDS011;12713;51.624;4.924;2024-02-23T07:28:16;9.13;;;2.92;;
24547;SDS011;12713;51.624;4.924;2024-02-23T07:30:44;11.02;;;2.42;;
24547;SDS011;12713;51.624;4.924;2024-02-23T07:33:11;12.70;;;3.22;;
24547;SDS011;12713;51.624;4.924;2024-02-23T07:35:37;12.73;;;2.90;;
24547;SDS011;12713;51.624;4.924;2024-02-23T07:38:03;10.93;;;2.67;;
24547;SDS011;12713;51.624;4.924;2024-02-23T07:40:29;8.73;;;2.72;;
24547;SDS011;12713;51.624;4.924;2024-02-23T07:42:57;13.07;;;2.28;;
24547;SDS011;12713;51.624;4.924;2024-02-23T07:45:23;7.70;;;2.63;;
24547;SDS011;12713;51.624;4.924;2024-02-23T07:47:49;10.05;;;2.63;;
24547;SDS011;12713;51.624;4.924;2024-02-23T07:50:15;11.57;;;3.75;;
24547;SDS011;12713;51.624;4.924;2024-02-23T07:52:43;8.50;;;2.85;;
24547;SDS011;12713;51.624;4.924;2024-02-23T07:55:09;9.27;;;3.10;;
24547;SDS011;12713;51.624;4.924;2024-02-23T07:57:35;9.52;;;2.92;;
24547;SDS011;12713;51.624;4.924;2024-02-23T08:00:03;7.80;;;2.60;;
24547;SDS011;12713;51.624;4.924;2024-02-23T08:02:29;8.95;;;2.63;;
24547;SDS011;12713;51.624;4.924;2024-02-23T08:04:55;14.65;;;3.03;;
24547;SDS011;12713;51.624;4.924;2024-02-23T08:07:21;10.48;;;2.53;;
24547;SDS011;12713;51.624;4.924;2024-02-23T08:09:48;13.27;;;2.22;;
24547;SDS011;12713;51.624;4.924;2024-02-23T08:12:14;9.50;;;2.85;;
24547;SDS011;12713;51.624;4.924;2024-02-23T08:14:41;7.93;;;2.13;;
24547;SDS011;12713;51.624;4.924;2024-02-23T08:17:10;7.63;;;2.10;;
24547;SDS011;12713;51.624;4.924;2024-02-23T08:19:36;7.80;;;2.13;;
24547;SDS011;12713;51.624;4.924;2024-02-23T08:22:02;8.73;;;1.85;;
24547;SDS011;12713;51.624;4.924;2024-02-23T08:24:28;5.53;;;1.83;;
24547;SDS011;12713;51.624;4.924;2024-02-23T08:26:54;9.57;;;2.45;;
24547;SDS011;12713;51.624;4.924;2024-02-23T08:29:20;11.55;;;2.47;;
24547;SDS011;12713;51.624;4.924;2024-02-23T08:31:46;9.15;;;2.53;;
24547;SDS011;12713;51.624;4.924;2024-02-23T08:34:12;14.85;;;2.72;;
24547;SDS011;12713;51.624;4.924;2024-02-23T08:36:38;9.93;;;2.50;;
24547;SDS011;12713;51.624;4.924;2024-02-23T08:39:04;9.43;;;2.05;;
24547;SDS011;12713;51.624;4.924;2024-02-23T08:41:30;11.52;;;2.58;;
24547;SDS011;12713;51.624;4.924;2024-02-23T08:43:56;7.00;;;2.05;;
24547;SDS011;12713;51.624;4.924;2024-02-23T08:46:22;8.55;;;2.05;;
24547;SDS011;12713;51.624;4.924;2024-02-23T08:48:48;8.15;;;1.30;;
24547;SDS011;12713;51.624;4.924;2024-02-23T08:51:14;11.80;;;2.40;;
24547;SDS011;12713;51.624;4.924;2024-02-23T08:53:40;15.65;;;2.45;;
24547;SDS011;12713;51.624;4.924;2024-02-23T08:56:07;8.13;;;2.60;;
24547;SDS011;12713;51.624;4.924;2024-02-23T08:58:33;6.97;;;2.00;;
24547;SDS011;12713;51.624;4.924;2024-02-23T09:00:59;12.63;;;3.13;;
24547;SDS011;12713;51.624;4.924;2024-02-23T09:03:25;12.38;;;2.53;;
24547;SDS011;12713;51.624;4.924;2024-02-23T09:05:51;10.70;;;2.67;;
24547;SDS011;12713;51.624;4.924;2024-02-23T09:08:17;10.70;;;2.28;;
24547;SDS011;12713;51.624;4.924;2024-02-23T09:10:43;8.07;;;2.55;;
24547;SDS011;12713;51.624;4.924;2024-02-23T09:13:10;11.45;;;2.95;;
24547;SDS011;12713;51.624;4.924;2024-02-23T09:15:36;11.63;;;2.35;;
24547;SDS011;12713;51.624;4.924;2024-02-23T09:18:02;7.35;;;2.42;;
24547;SDS011;12713;51.624;4.924;2024-02-23T09:20:28;9.55;;;2.40;;
24547;SDS011;12713;51.624;4.924;2024-02-23T09:22:54;11.48;;;2.70;;
24547;SDS011;12713;51.624;4.924;2024-02-23T09:25:20;6.38;;;2.05;;
24547;SDS011;12713;51.624;4.924;2024-02-23T09:27:46;7.45;;;2.20;;
24547;SDS011;12713;51.624;4.924;2024-02-23T09:30:13;7.05;;;2.10;;
24547;SDS011;12713;51.624;4.924;2024-02-23T09:32:39;8.50;;;2.15;;
24547;SDS011;12713;51.624;4.924;2024-02-23T09:35:05;7.57;;;2.88;;
24547;SDS011;12713;51.624;4.924;2024-02-23T09:37:32;9.75;;;2.78;;
24547;SDS011;12713;51.624;4.924;2024-02-23T09:39:58;13.07;;;2.58;;
24547;SDS011;12713;51.624;4.924;2024-02-23T09:42:24;9.82;;;2.33;;
24547;SDS011;12713;51.624;4.924;2024-02-23T09:44:52;6.85;;;2.33;;
24547;SDS011;12713;51.624;4.924;2024-02-23T09:47:20;6.13;;;2.08;;
24547;SDS011;12713;51.624;4.924;2024-02-23T09:49:46;7.43;;;2.05;;
24547;SDS011;12713;51.624;4.924;2024-02-23T09:52:15;9.52;;;2.20;;
24547;SDS011;12713;51.624;4.924;2024-02-23T09:54:41;8.85;;;2.22;;
24547;SDS011;12713;51.624;4.924;2024-02-23T09:57:08;5.57;;;1.88;;
24547;SDS011;12713;51.624;4.924;2024-02-23T09:59:35;9.93;;;2.70;;
24547;SDS011;12713;51.624;4.924;2024-02-23T10:02:13;9.25;;;2.28;;
24547;SDS011;12713;51.624;4.924;2024-02-23T10:04:40;7.40;;;2.03;;
24547;SDS011;12713;51.624;4.924;2024-02-23T10:07:08;7.28;;;2.00;;
24547;SDS011;12713;51.624;4.924;2024-02-23T10:09:34;3.40;;;1.67;;
24547;SDS011;12713;51.624;4.924;2024-02-23T10:12:01;7.88;;;2.55;;
24547;SDS011;12713;51.624;4.924;2024-02-23T10:14:27;7.75;;;2.03;;
24547;SDS011;12713;51.624;4.924;2024-02-23T10:16:53;11.77;;;2.67;;
24547;SDS011;12713;51.624;4.924;2024-02-23T10:19:20;5.20;;;1.73;;
24547;SDS011;12713;51.624;4.924;2024-02-23T10:21:53;8.88;;;1.90;;
24547;SDS011;12713;51.624;4.924;2024-02-23T10:24:19;5.95;;;1.77;;
24547;SDS011;12713;51.624;4.924;2024-02-23T10:26:46;5.57;;;1.92;;
24547;SDS011;12713;51.624;4.924;2024-02-23T10:29:12;5.32;;;2.13;;
24547;SDS011;12713;51.624;4.924;2024-02-23T10:31:38;5.97;;;2.28;;
24547;SDS011;12713;51.624;4.924;2024-02-23T10:34:08;8.35;;;2.25;;
24547;SDS011;12713;51.624;4.924;2024-02-23T10:36:39;5.70;;;1.83;;
24547;SDS011;12713;51.624;4.924;2024-02-23T10:39:05;8.93;;;2.63;;
24547;SDS011;12713;51.624;4.924;2024-02-23T10:41:35;7.85;;;2.25;;
24547;SDS011;12713;51.624;4.924;2024-02-23T10:44:04;8.82;;;2.13;;
24547;SDS011;12713;51.624;4.924;2024-02-23T10:46:31;8.55;;;2.00;;
24547;SDS011;12713;51.624;4.924;2024-02-23T10:48:58;5.90;;;2.08;;
24547;SDS011;12713;51.624;4.924;2024-02-23T10:51:24;6.63;;;2.33;;
24547;SDS011;12713;51.624;4.924;2024-02-23T10:53:51;10.15;;;2.33;;
24547;SDS011;12713;51.624;4.924;2024-02-23T10:56:18;5.40;;;2.05;;
24547;SDS011;12713;51.624;4.924;2024-02-23T10:58:44;6.70;;;2.30;;
24547;SDS011;12713;51.624;4.924;2024-02-23T11:01:11;5.40;;;2.05;;
24547;SDS011;12713;51.624;4.924;2024-02-23T11:03:38;5.80;;;1.73;;
24547;SDS011;12713;51.624;4.924;2024-02-23T11:06:06;6.50;;;1.77;;
24547;SDS011;12713;51.624;4.924;2024-02-23T11:08:32;4.25;;;1.40;;
24547;SDS011;12713;51.624;4.924;2024-02-23T11:11:07;5.00;;;1.95;;
24547;SDS011;12713;51.624;4.924;2024-02-23T11:13:36;6.03;;;1.77;;
24547;SDS011;12713;51.624;4.924;2024-02-23T11:16:03;6.20;;;2.00;;
24547;SDS011;12713;51.624;4.924;2024-02-23T11:18:29;8.05;;;2.28;;
24547;SDS011;12713;51.624;4.924;2024-02-23T11:21:00;5.65;;;2.28;;
24547;SDS011;12713;51.624;4.924;2024-02-23T11:23:27;9.88;;;2.70;;
24547;SDS011;12713;51.624;4.924;2024-02-23T11:28:28;7.60;;;1.90;;
24547;SDS011;12713;51.624;4.924;2024-02-23T11:30:56;8.85;;;2.00;;
24547;SDS011;12713;51.624;4.924;2024-02-23T11:33:25;5.70;;;2.00;;
24547;SDS011;12713;51.624;4.924;2024-02-23T11:35:51;7.43;;;1.90;;
24547;SDS011;12713;51.624;4.924;2024-02-23T11:38:20;6.32;;;2.38;;
24547;SDS011;12713;51.624;4.924;2024-02-23T11:40:47;3.60;;;2.30;;
24547;SDS011;12713;51.624;4.924;2024-02-23T11:43:14;6.53;;;1.90;;
24547;SDS011;12713;51.624;4.924;2024-02-23T11:45:40;6.35;;;1.90;;
24547;SDS011;12713;51.624;4.924;2024-02-23T11:48:06;6.72;;;2.40;;
24547;SDS011;12713;51.624;4.924;2024-02-23T11:50:33;9.32;;;1.65;;
24547;SDS011;12713;51.624;4.924;2024-02-23T11:52:59;6.93;;;1.52;;
24547;SDS011;12713;51.624;4.924;2024-02-23T11:55:26;3.80;;;1.42;;
24547;SDS011;12713;51.624;4.924;2024-02-23T11:57:52;4.30;;;1.58;;
24547;SDS011;12713;51.624;4.924;2024-02-23T12:00:18;3.75;;;1.48;;
24547;SDS011;12713;51.624;4.924;2024-02-23T12:02:44;4.10;;;1.25;;
24547;SDS011;12713;51.624;4.924;2024-02-23T12:05:15;4.45;;;1.67;;
24547;SDS011;12713;51.624;4.924;2024-02-23T12:07:41;7.07;;;1.52;;
24547;SDS011;12713;51.624;4.924;2024-02-23T12:10:07;3.13;;;1.17;;
24547;SDS011;12713;51.624;4.924;2024-02-23T12:12:33;9.70;;;1.73;;
24547;SDS011;12713;51.624;4.924;2024-02-23T12:14:59;6.43;;;2.17;;
24547;SDS011;12713;51.624;4.924;2024-02-23T12:17:25;4.55;;;1.35;;
24547;SDS011;12713;51.624;4.924;2024-02-23T12:20:01;6.82;;;1.88;;
24547;SDS011;12713;51.624;4.924;2024-02-23T12:22:28;9.80;;;2.10;;
24547;SDS011;12713;51.624;4.924;2024-02-23T12:24:57;6.95;;;1.48;;
24547;SDS011;12713;51.624;4.924;2024-02-23T12:27:24;8.50;;;1.80;;
24547;SDS011;12713;51.624;4.924;2024-02-23T12:29:53;6.90;;;1.60;;
24547;SDS011;12713;51.624;4.924;2024-02-23T12:32:23;4.68;;;2.05;;
24547;SDS011;12713;51.624;4.924;2024-02-23T12:34:49;4.43;;;1.80;;
24547;SDS011;12713;51.624;4.924;2024-02-23T12:37:15;7.07;;;2.20;;
24547;SDS011;12713;51.624;4.924;2024-02-23T12:39:42;6.82;;;1.90;;
24547;SDS011;12713;51.624;4.924;2024-02-23T12:42:08;7.13;;;1.98;;
24547;SDS011;12713;51.624;4.924;2024-02-23T12:44:34;3.17;;;1.50;;
24547;SDS011;12713;51.624;4.924;2024-02-23T12:47:00;4.93;;;1.55;;
24547;SDS011;12713;51.624;4.924;2024-02-23T12:49:26;6.35;;;1.50;;
24547;SDS011;12713;51.624;4.924;2024-02-23T12:51:52;6.68;;;1.65;;
24547;SDS011;12713;51.624;4.924;2024-02-23T12:54:18;4.53;;;1.48;;
24547;SDS011;12713;51.624;4.924;2024-02-23T12:56:44;6.40;;;1.60;;
24547;SDS011;12713;51.624;4.924;2024-02-23T12:59:10;6.15;;;2.05;;
24547;SDS011;12713;51.624;4.924;2024-02-23T13:01:36;8.60;;;1.80;;
24547;SDS011;12713;51.624;4.924;2024-02-23T13:04:04;8.80;;;2.13;;
24547;SDS011;12713;51.624;4.924;2024-02-23T13:06:38;9.90;;;1.90;;
24547;SDS011;12713;51.624;4.924;2024-02-23T13:09:04;8.23;;;1.90;;
24547;SDS011;12713;51.624;4.924;2024-02-23T13:11:33;3.53;;;1.60;;
24547;SDS011;12713;51.624;4.924;2024-02-23T13:13:59;6.47;;;1.65;;
24547;SDS011;12713;51.624;4.924;2024-02-23T13:16:25;8.27;;;1.75;;
24547;SDS011;12713;51.624;4.924;2024-02-23T13:18:51;4.03;;;1.42;;
24547;SDS011;12713;51.624;4.924;2024-02-23T13:21:17;2.97;;;1.58;;
24547;SDS011;12713;51.624;4.924;2024-02-23T13:23:43;5.43;;;1.40;;
24547;SDS011;12713;51.624;4.924;2024-02-23T13:26:09;4.43;;;1.50;;
24547;SDS011;12713;51.624;4.924;2024-02-23T13:28:39;7.00;;;1.88;;
24547;SDS011;12713;51.624;4.924;2024-02-23T13:31:05;4.32;;;1.60;;
24547;SDS011;12713;51.624;4.924;2024-02-23T13:33:31;6.10;;;1.35;;
24547;SDS011;12713;51.624;4.924;2024-02-23T13:35:57;3.83;;;1.23;;
24547;SDS011;12713;51.624;4.924;2024-02-23T13:38:23;7.90;;;1.50;;
24547;SDS011;12713;51.624;4.924;2024-02-23T13:40:49;1.60;;;1.10;;
24547;SDS011;12713;51.624;4.924;2024-02-23T13:43:16;5.07;;;1.65;;
24547;SDS011;12713;51.624;4.924;2024-02-23T13:45:49;4.32;;;1.23;;
24547;SDS011;12713;51.624;4.924;2024-02-23T13:48:16;6.97;;;1.83;;
24547;SDS011;12713;51.624;4.924;2024-02-23T13:50:43;6.22;;;1.67;;
24547;SDS011;12713;51.624;4.924;2024-02-23T13:53:10;4.38;;;1.65;;
24547;SDS011;12713;51.624;4.924;2024-02-23T13:55:37;3.58;;;1.42;;
24547;SDS011;12713;51.624;4.924;2024-02-23T13:58:03;2.53;;;1.42;;
24547;SDS011;12713;51.624;4.924;2024-02-23T14:00:29;5.78;;;1.83;;
24547;SDS011;12713;51.624;4.924;2024-02-23T14:02:55;3.58;;;1.67;;
24547;SDS011;12713;51.624;4.924;2024-02-23T14:05:21;5.22;;;1.90;;
24547;SDS011;12713;51.624;4.924;2024-02-23T14:07:50;3.80;;;1.65;;
24547;SDS011;12713;51.624;4.924;2024-02-23T14:10:16;4.10;;;1.60;;
24547;SDS011;12713;51.624;4.924;2024-02-23T14:12:42;9.70;;;1.65;;
24547;SDS011;12713;51.624;4.924;2024-02-23T14:15:08;5.07;;;1.33;;
24547;SDS011;12713;51.624;4.924;2024-02-23T14:17:35;6.22;;;1.30;;
24547;SDS011;12713;51.624;4.924;2024-02-23T14:20:01;2.97;;;1.13;;
24547;SDS011;12713;51.624;4.924;2024-02-23T14:22:28;4.50;;;1.27;;
24547;SDS011;12713;51.624;4.924;2024-02-23T14:24:54;2.60;;;1.10;;
24547;SDS011;12713;51.624;4.924;2024-02-23T14:27:20;5.43;;;1.20;;
24547;SDS011;12713;51.624;4.924;2024-02-23T14:29:46;2.65;;;1.20;;
24547;SDS011;12713;51.624;4.924;2024-02-23T14:32:15;5.05;;;1.15;;
24547;SDS011;12713;51.624;4.924;2024-02-23T14:34:41;3.42;;;1.00;;
24547;SDS011;12713;51.624;4.924;2024-02-23T14:37:07;3.50;;;1.20;;
24547;SDS011;12713;51.624;4.924;2024-02-23T14:39:33;5.40;;;1.38;;
24547;SDS011;12713;51.624;4.924;2024-02-23T14:42:00;6.57;;;1.58;;
24547;SDS011;12713;51.624;4.924;2024-02-23T14:44:26;7.35;;;1.48;;